WetterOnline ( http://www.wetteronline.de )

Wetter aktuell Schwerin

Aktuelles Wetter: Boltenhagen (17m)

6-stündlich | Neueste Meldungen
Ortszeit Temperatur Wetter
Di, 25.09. 14:00 13.2° C fast wolkenlos
Di, 25.09. 8:00 8.7° C wolkenlos
Di, 25.09. 2:00 8.7° C fast wolkenlos
Mo, 24.09. 20:00 9.8° C wolkenlos
Mo, 24.09. 14:00 12.9° C leicht bewölkt
Mo, 24.09. 8:00 9.7° C fast wolkenlos
Mo, 24.09. 2:00 10.0° C wolkenlos
So, 23.09. 20:00 11.4° C bedeckt
Ortszeit Temperatur Wetter
Di, 25.09. 19:00 11.7° C wolkig
Di, 25.09. 18:50 11.7° C wolkig
Di, 25.09. 18:40 11.8° C wolkig
Di, 25.09. 18:30 12.1° C wolkig
Di, 25.09. 18:20 12.1° C wolkig
Di, 25.09. 18:10 12.3° C leicht bewölkt
Di, 25.09. 18:00 13.2° C leicht bewölkt
Di, 25.09. 17:30 14.0° C wolkenlos
Di, 25.09. 17:00 14.4° C wolkig
Di, 25.09. 16:30 14.3° C wolkenlos
Di, 25.09. 16:00 14.2° C leicht bewölkt
Ortszeit Relative Feuchte Sichtweite
Di, 25.09. 14:00 51% 35 km
Di, 25.09. 8:00 80% 70 km
Di, 25.09. 2:00 78% 40 km
Mo, 24.09. 20:00 68% 70 km
Mo, 24.09. 14:00 56% 12 km
Mo, 24.09. 8:00 74% 21 km
Mo, 24.09. 2:00 76% 25 km
So, 23.09. 20:00 79% 25 km
Ortszeit Relative Feuchte Sichtweite
Di, 25.09. 19:00 66% 55 km
Di, 25.09. 18:50 66% -
Di, 25.09. 18:40 64% -
Di, 25.09. 18:30 64% 70 km
Di, 25.09. 18:20 64% -
Di, 25.09. 18:10 62% -
Di, 25.09. 18:00 57% 65 km
Di, 25.09. 17:30 51% 65 km
Di, 25.09. 17:00 51% 35 km
Di, 25.09. 16:30 48% 35 km
Di, 25.09. 16:00 49% 20 km
Ortszeit Niederschlagsmenge Niederschlagsart
Di, 25.09. 14:00 0.0 l/m2 in 6 Std. -
Di, 25.09. 8:00 0.1 l/m2 in 12 Std. -
Di, 25.09. 2:00 0.1 l/m2 in 6 Std. Regen
Mo, 24.09. 20:00 0.3 l/m2 in 12 Std. Regen
Mo, 24.09. 14:00 0.3 l/m2 in 6 Std. Regen
Mo, 24.09. 8:00 0.1 l/m2 in 12 Std. Regen
Mo, 24.09. 2:00 0.1 l/m2 in 6 Std. Regen
So, 23.09. 20:00 0.1 l/m2 in 12 Std. Regen
Ortszeit Niederschlagsmenge Niederschlagsart
Di, 25.09. 19:00 0.0 l/m2 in 1 Std. -
Di, 25.09. 18:50 keine Meldung -
Di, 25.09. 18:40 keine Meldung -
Di, 25.09. 18:30 0.0 l/m2 in 1 Std. -
Di, 25.09. 18:20 keine Meldung -
Di, 25.09. 18:10 keine Meldung -
Di, 25.09. 18:00 0.0 l/m2 in 1 Std. -
Di, 25.09. 17:30 0.0 l/m2 in 1 Std. -
Di, 25.09. 17:00 0.0 l/m2 in 1 Std. -
Di, 25.09. 16:30 0.0 l/m2 in 1 Std. -
Di, 25.09. 16:00 0.0 l/m2 in 1 Std. -
Ortszeit Stärke Spitze Richtung
km/h Bft. km/h Grad Sektor
Di, 25.09. 14:00 15 3 31 280° W
Di, 25.09. 8:00 18 3 40 280° W
Di, 25.09. 2:00 22 4 50 280° W
Mo, 24.09. 20:00 31 5 61 280° W
Mo, 24.09. 14:00 31 5 63 270° W
Mo, 24.09. 8:00 33 5 59 280° W
Mo, 24.09. 2:00 31 5 52 280° W
So, 23.09. 20:00 22 4 36 280° W
Ortszeit Stärke Spitze Richtung
km/h Bft. km/h Grad Sektor
Di, 25.09. 19:00 13 3 19 250° W
Di, 25.09. 18:50 13 3 - 250° W
Di, 25.09. 18:40 11 2 - 250° W
Di, 25.09. 18:30 9 2 19 240° SW
Di, 25.09. 18:20 9 2 - 240° SW
Di, 25.09. 18:10 11 2 - 250° W
Di, 25.09. 18:00 11 2 22 250° W
Di, 25.09. 17:30 17 3 20 260° W
Di, 25.09. 17:00 14 3 29 260° W
Di, 25.09. 16:30 17 3 30 260° W
Di, 25.09. 16:00 20 4 28 260° W
Ortszeit Untergrenze Bedeckung Gattung
total tief tief mittel hoch
Di, 25.09. 14:00 9000 m 2/8 0/8 - - -
Di, 25.09. 8:00 1020 m 0/8 0/8 - - -
Di, 25.09. 2:00 1500 m 1/8 1/8 - - -
Mo, 24.09. 20:00 1500 m 0/8 0/8 - - -
Mo, 24.09. 14:00 1440 m 4/8 1/8 - - -
Mo, 24.09. 8:00 4500 m 1/8 2/8 - - -
Mo, 24.09. 2:00 - 0/8 0/8 - - -
So, 23.09. 20:00 3000 m 8/8 8/8 - - -
Ortszeit Bedeckungsgrad in Achtel und Wolkenuntergrenze
Di, 25.09. 19:00 2(1800m) 7(8700m) 7(10500m)
Di, 25.09. 18:50 2(1800m) 7(8700m) 7(10500m)
Di, 25.09. 18:40 3(1800m) 6(8700m)
Di, 25.09. 18:30 1(1800m) 6(8700m) 7(9000m)
Di, 25.09. 18:20 1(1800m) 6(8700m) 7(9000m)
Di, 25.09. 18:10 5(9000m)
Di, 25.09. 18:00 1(1800m) 2(9000m)
Di, 25.09. 17:30 1(1800m)
Di, 25.09. 17:00 3(1800m)
Di, 25.09. 16:30 keine Wolken
Di, 25.09. 16:00 1(1230m) 4(1500m)
Ortszeit Luftdruck NN (hPa) Tendenz (hPa in 3 Std.)
Di, 25.09. 14:00 1037 + 0,6
Di, 25.09. 8:00 1035 + 1,7
Di, 25.09. 2:00 1032 + 2,0
Mo, 24.09. 20:00 1028 + 1,8
Mo, 24.09. 14:00 1025 + 1,5
Mo, 24.09. 8:00 1020 + 2,4
Mo, 24.09. 2:00 1015 + 2,8
So, 23.09. 20:00 1009 0,0
Ortszeit Luftdruck NN (hPa) Tendenz (hPa in 3 Std.)
Di, 25.09. 19:00 1037 - 0,4
Di, 25.09. 18:50 1037 keine Meldung
Di, 25.09. 18:40 1037 keine Meldung
Di, 25.09. 18:30 1037 - 0,4
Di, 25.09. 18:20 1037 keine Meldung
Di, 25.09. 18:10 1037 keine Meldung
Di, 25.09. 18:00 1037 - 0,5
Di, 25.09. 17:30 1037 - 0,7
Di, 25.09. 17:00 1037 - 0,6
Di, 25.09. 16:30 1037 - 0,7
Di, 25.09. 16:00 1037 - 0,4
Ortszeit Schneehöhe (cm)
Di, 25.09. 14:00 -
Di, 25.09. 8:00 -
Di, 25.09. 2:00 -
Mo, 24.09. 20:00 -
Mo, 24.09. 14:00 -
Mo, 24.09. 8:00 -
Mo, 24.09. 2:00 -
So, 23.09. 20:00 -
Ortszeit Schneehöhe (cm)
Di, 25.09. 19:00 -
Di, 25.09. 18:50 -
Di, 25.09. 18:40 -
Di, 25.09. 18:30 -
Di, 25.09. 18:20 -
Di, 25.09. 18:10 -
Di, 25.09. 18:00 -
Di, 25.09. 17:30 -
Di, 25.09. 17:00 -
Di, 25.09. 16:30 -
Di, 25.09. 16:00 -
Link zu dieser Seite / Seite empfehlen

Das Wetter in ...